createdAt,value
2017-08-23T00:00:13.005Z,99.90
2017-08-23T00:02:39.402Z,99.90
2017-08-23T00:05:05.759Z,99.90
2017-08-23T00:07:32.151Z,99.90
2017-08-23T00:09:58.571Z,99.90
2017-08-23T00:12:24.935Z,99.90
2017-08-23T00:14:51.323Z,99.90
2017-08-23T00:17:17.731Z,99.90
2017-08-23T00:19:44.119Z,99.90
2017-08-23T00:22:10.495Z,99.90
2017-08-23T00:24:36.888Z,99.90
2017-08-23T00:27:03.264Z,99.90
2017-08-23T00:29:29.707Z,99.90
2017-08-23T00:31:56.172Z,99.90
2017-08-23T00:34:22.575Z,99.90
2017-08-23T00:36:48.995Z,99.90
2017-08-23T00:39:15.387Z,99.90
2017-08-23T00:41:41.780Z,99.90
2017-08-23T00:44:08.199Z,99.90
2017-08-23T00:46:34.579Z,99.90
2017-08-23T00:49:01.009Z,99.90
2017-08-23T00:51:27.456Z,99.90
2017-08-23T00:53:53.880Z,99.90
2017-08-23T00:56:20.283Z,99.90
2017-08-23T00:58:46.678Z,99.90
2017-08-23T01:01:13.065Z,99.90
2017-08-23T01:03:39.495Z,99.90
2017-08-23T01:06:05.895Z,99.90
2017-08-23T01:08:32.643Z,99.90
2017-08-23T01:10:59.027Z,99.90
2017-08-23T01:13:25.461Z,99.90
2017-08-23T01:15:51.810Z,99.90
2017-08-23T01:18:18.224Z,99.90
2017-08-23T01:20:44.635Z,99.90
2017-08-23T01:23:11.031Z,99.90
2017-08-23T01:25:37.408Z,99.90
2017-08-23T01:28:03.798Z,99.90
2017-08-23T01:30:30.197Z,99.90
2017-08-23T01:32:56.550Z,99.90
2017-08-23T01:35:22.995Z,99.90
2017-08-23T01:37:49.395Z,99.90
2017-08-23T01:40:15.815Z,99.90
2017-08-23T01:42:42.289Z,99.90
2017-08-23T01:45:08.672Z,99.90
2017-08-23T01:47:35.047Z,99.90
2017-08-23T01:50:01.447Z,99.90
2017-08-23T01:52:27.778Z,99.90
2017-08-23T01:54:54.178Z,99.90
2017-08-23T01:57:20.600Z,99.90
2017-08-23T01:59:47.002Z,99.90
2017-08-23T02:02:13.430Z,99.90
2017-08-23T02:04:39.836Z,99.90
2017-08-23T02:07:06.219Z,99.90
2017-08-23T02:09:32.624Z,99.90
2017-08-23T02:11:59.039Z,99.90
2017-08-23T02:14:25.439Z,99.90
2017-08-23T02:16:52.847Z,99.90
2017-08-23T02:19:19.263Z,99.90
2017-08-23T02:21:45.620Z,99.90
2017-08-23T02:24:12.011Z,99.90
2017-08-23T02:26:38.390Z,99.90
2017-08-23T02:29:04.756Z,99.90
2017-08-23T02:31:31.132Z,99.90
2017-08-23T02:33:57.560Z,99.90
2017-08-23T02:36:23.935Z,99.90
2017-08-23T02:38:50.320Z,99.90
2017-08-23T02:41:16.724Z,99.90
2017-08-23T02:43:43.139Z,99.90
2017-08-23T02:46:09.498Z,99.90
2017-08-23T02:48:35.910Z,99.90
2017-08-23T02:51:02.359Z,99.90
2017-08-23T02:53:28.713Z,99.90
2017-08-23T02:55:55.137Z,99.90
2017-08-23T02:58:21.528Z,99.90
2017-08-23T03:00:47.911Z,99.90
2017-08-23T03:03:14.336Z,99.90
2017-08-23T03:05:40.683Z,99.90
2017-08-23T03:08:07.083Z,99.90
2017-08-23T03:10:33.481Z,99.90
2017-08-23T03:12:59.852Z,99.90
2017-08-23T03:15:26.234Z,99.90
2017-08-23T03:17:52.654Z,99.90
2017-08-23T03:20:19.062Z,99.90
2017-08-23T03:22:46.541Z,99.90
2017-08-23T03:25:12.939Z,99.90
2017-08-23T03:27:39.363Z,99.90
2017-08-23T03:30:05.764Z,99.90
2017-08-23T03:32:32.191Z,99.90
2017-08-23T03:34:59.039Z,99.90
2017-08-23T03:37:25.391Z,99.90
2017-08-23T03:39:51.763Z,99.90
2017-08-23T03:42:18.139Z,99.90
2017-08-23T03:44:44.524Z,99.90
2017-08-23T03:47:10.961Z,99.90
2017-08-23T03:49:37.355Z,99.90
2017-08-23T03:52:03.784Z,99.90
2017-08-23T03:54:30.159Z,99.90
2017-08-23T03:56:56.553Z,99.90
2017-08-23T03:59:22.911Z,99.90
2017-08-23T04:01:49.280Z,99.90
2017-08-23T04:04:15.671Z,99.90
2017-08-23T04:06:42.028Z,99.90
2017-08-23T04:09:08.429Z,99.90
2017-08-23T04:11:34.831Z,99.90
2017-08-23T04:14:01.216Z,99.90
2017-08-23T04:16:27.628Z,99.90
2017-08-23T04:18:54.015Z,99.90
2017-08-23T04:21:20.415Z,99.90
2017-08-23T04:23:46.852Z,99.90
2017-08-23T04:26:13.236Z,99.90
2017-08-23T04:28:39.578Z,99.90
2017-08-23T04:31:05.996Z,99.90
2017-08-23T04:33:33.414Z,99.90
2017-08-23T04:35:59.803Z,99.90
2017-08-23T04:38:26.199Z,99.90
2017-08-23T04:40:52.586Z,99.90
2017-08-23T04:43:19.008Z,99.90
2017-08-23T04:45:45.424Z,99.90
2017-08-23T04:48:11.795Z,99.90
2017-08-23T04:50:38.192Z,99.90
2017-08-23T04:53:05.029Z,99.90
2017-08-23T04:55:31.709Z,99.90
2017-08-23T04:57:59.019Z,99.90
2017-08-23T05:00:25.833Z,99.90
2017-08-23T05:02:52.304Z,99.90
2017-08-23T05:05:18.707Z,99.90
2017-08-23T05:07:45.056Z,99.90
2017-08-23T05:10:11.371Z,99.90
2017-08-23T05:12:37.739Z,99.90
2017-08-23T05:15:04.109Z,99.90
2017-08-23T05:17:30.536Z,99.90
2017-08-23T05:19:56.944Z,99.90
2017-08-23T05:22:23.397Z,99.90
2017-08-23T05:24:50.939Z,99.90
2017-08-23T05:27:18.432Z,99.90
2017-08-23T05:29:44.836Z,99.90
2017-08-23T05:32:11.227Z,99.90
2017-08-23T05:34:37.683Z,99.90
2017-08-23T05:37:04.166Z,99.90
2017-08-23T05:39:30.560Z,99.90
2017-08-23T05:41:56.979Z,99.90
2017-08-23T05:44:23.464Z,99.90
2017-08-23T05:46:49.871Z,99.90
2017-08-23T05:49:16.267Z,99.90
2017-08-23T05:51:42.647Z,99.90
2017-08-23T05:54:09.075Z,99.90
2017-08-23T05:56:35.503Z,99.90
2017-08-23T05:59:01.935Z,99.90
2017-08-23T06:01:28.359Z,99.90
2017-08-23T06:03:54.775Z,99.90
2017-08-23T06:06:21.147Z,99.90
2017-08-23T06:08:47.571Z,99.90
2017-08-23T06:11:13.967Z,99.90
2017-08-23T06:13:40.404Z,99.90
2017-08-23T06:16:06.787Z,99.90
2017-08-23T06:18:33.210Z,99.90
2017-08-23T06:20:59.575Z,99.90
2017-08-23T06:23:25.991Z,99.90
2017-08-23T06:25:52.406Z,99.90
2017-08-23T06:28:18.814Z,99.90
2017-08-23T06:30:45.176Z,99.90
2017-08-23T06:33:11.544Z,99.90
2017-08-23T06:35:37.923Z,99.90
2017-08-23T06:38:04.315Z,98.10
2017-08-23T06:40:30.691Z,96.60
2017-08-23T06:42:57.095Z,97.30
2017-08-23T06:45:23.471Z,98.50
2017-08-23T06:47:49.879Z,99.40
2017-08-23T06:50:16.346Z,99.00
2017-08-23T06:52:42.732Z,97.80
2017-08-23T06:55:09.119Z,96.80
2017-08-23T06:57:35.523Z,93.90
2017-08-23T07:00:01.907Z,96.10
2017-08-23T07:02:28.287Z,97.10
2017-08-23T07:04:54.683Z,94.70
2017-08-23T07:07:21.043Z,94.50
2017-08-23T07:09:47.435Z,95.90
2017-08-23T07:12:13.851Z,95.10
2017-08-23T07:14:40.291Z,92.80
2017-08-23T07:17:06.635Z,90.20
2017-08-23T07:19:33.038Z,90.30
2017-08-23T07:21:59.351Z,88.20
2017-08-23T07:24:25.692Z,89.60
2017-08-23T07:26:52.103Z,90.50
2017-08-23T07:29:18.459Z,87.00
2017-08-23T07:31:44.819Z,88.60
2017-08-23T07:34:11.251Z,85.30
2017-08-23T07:36:37.663Z,88.50
2017-08-23T07:39:04.067Z,84.50
2017-08-23T07:41:30.467Z,88.50
2017-08-23T07:43:56.839Z,91.00
2017-08-23T07:46:23.183Z,89.60
2017-08-23T07:48:49.572Z,90.50
2017-08-23T07:51:15.915Z,87.80
2017-08-23T07:53:42.299Z,88.40
2017-08-23T07:56:08.677Z,81.70
2017-08-23T07:58:35.059Z,86.50
2017-08-23T08:01:01.467Z,85.30
2017-08-23T08:03:27.891Z,78.20
2017-08-23T08:05:54.712Z,83.60
2017-08-23T08:08:21.099Z,77.10
2017-08-23T08:10:47.519Z,79.20
2017-08-23T08:13:13.980Z,84.40
2017-08-23T08:15:40.335Z,84.90
2017-08-23T08:18:06.768Z,84.00
2017-08-23T08:20:33.196Z,81.70
2017-08-23T08:22:59.553Z,84.50
2017-08-23T08:25:25.912Z,85.30
2017-08-23T08:27:52.272Z,83.80
2017-08-23T08:30:18.613Z,78.80
2017-08-23T08:32:45.012Z,74.00
2017-08-23T08:35:11.351Z,76.00
2017-08-23T08:37:37.675Z,70.10
2017-08-23T08:40:04.016Z,71.90
2017-08-23T08:42:30.335Z,76.10
2017-08-23T08:44:56.695Z,68.80
2017-08-23T08:47:23.052Z,68.30
2017-08-23T08:49:49.430Z,65.50
2017-08-23T08:52:15.796Z,63.10
2017-08-23T08:54:42.181Z,57.50
2017-08-23T08:57:08.551Z,52.80
2017-08-23T08:59:34.923Z,47.90
2017-08-23T09:02:01.336Z,44.30
2017-08-23T09:04:27.732Z,39.90
2017-08-23T09:06:54.079Z,38.70
2017-08-23T09:09:20.454Z,38.80
2017-08-23T09:11:46.880Z,36.20
2017-08-23T09:14:13.288Z,32.90
2017-08-23T09:16:39.655Z,31.00
2017-08-23T09:19:06.031Z,32.10
2017-08-23T09:21:32.359Z,30.10
2017-08-23T09:23:58.746Z,30.00
2017-08-23T09:26:25.119Z,30.80
2017-08-23T09:28:51.500Z,33.00
2017-08-23T09:31:17.932Z,31.70
2017-08-23T09:33:44.323Z,34.00
2017-08-23T09:36:10.643Z,38.10
2017-08-23T09:38:37.094Z,37.70
2017-08-23T09:41:03.470Z,41.70
2017-08-23T09:43:29.888Z,45.00
2017-08-23T09:45:56.275Z,48.00
2017-08-23T09:48:22.629Z,50.80
2017-08-23T09:50:49.128Z,51.30
2017-08-23T09:53:15.562Z,49.40
2017-08-23T09:55:41.977Z,51.80
2017-08-23T09:58:08.332Z,55.40
2017-08-23T10:00:34.755Z,54.20
2017-08-23T10:03:01.140Z,57.50
2017-08-23T10:05:27.511Z,55.70
2017-08-23T10:07:53.903Z,59.30
2017-08-23T10:10:20.299Z,60.30
2017-08-23T10:12:46.679Z,60.40
2017-08-23T10:15:13.083Z,60.40
2017-08-23T10:17:39.443Z,63.30
2017-08-23T10:20:05.851Z,58.70
2017-08-23T10:22:32.243Z,59.80
2017-08-23T10:24:58.608Z,60.10
2017-08-23T10:27:25.011Z,61.70
2017-08-23T10:29:51.443Z,60.80
2017-08-23T10:32:17.796Z,61.90
2017-08-23T10:34:44.183Z,62.80
2017-08-23T10:37:10.580Z,65.90
2017-08-23T10:39:36.963Z,65.60
2017-08-23T10:42:03.325Z,66.70
2017-08-23T10:44:29.859Z,62.60
2017-08-23T10:46:56.318Z,61.50
2017-08-23T10:49:22.694Z,63.70
2017-08-23T10:51:49.144Z,61.00
2017-08-23T10:54:15.575Z,62.00
2017-08-23T10:56:41.956Z,59.80
2017-08-23T10:59:08.383Z,58.10
2017-08-23T11:01:34.723Z,59.10
2017-08-23T11:04:01.075Z,63.80
2017-08-23T11:06:27.467Z,63.70
2017-08-23T11:08:53.870Z,59.40
2017-08-23T11:11:20.205Z,59.00
2017-08-23T11:13:46.596Z,58.40
2017-08-23T11:16:12.988Z,57.60
2017-08-23T11:18:39.359Z,54.40
2017-08-23T11:21:05.731Z,55.40
2017-08-23T11:23:32.091Z,57.00
2017-08-23T11:25:58.482Z,56.80
2017-08-23T11:28:24.855Z,58.00
2017-08-23T11:30:51.194Z,59.40
2017-08-23T11:33:18.491Z,61.40
2017-08-23T11:35:44.880Z,60.70
2017-08-23T11:38:11.211Z,57.50
2017-08-23T11:40:37.567Z,59.70
2017-08-23T11:43:04.008Z,56.90
2017-08-23T11:45:30.428Z,57.90
2017-08-23T11:47:56.771Z,57.20
2017-08-23T11:50:23.175Z,56.80
2017-08-23T11:52:49.534Z,58.30
2017-08-23T11:55:30.833Z,56.10
2017-08-23T11:57:57.207Z,57.30
2017-08-23T12:00:23.584Z,54.20
2017-08-23T12:02:49.923Z,58.00
2017-08-23T12:05:16.347Z,56.80
2017-08-23T12:07:42.676Z,55.00
2017-08-23T12:10:09.031Z,57.60
2017-08-23T12:12:35.403Z,53.60
2017-08-23T12:15:01.796Z,54.10
2017-08-23T12:17:28.183Z,52.90
2017-08-23T12:19:54.555Z,52.70
2017-08-23T12:22:20.880Z,56.80
2017-08-23T12:24:47.343Z,53.60
2017-08-23T12:27:13.703Z,53.20
2017-08-23T12:29:40.063Z,52.70
2017-08-23T12:32:06.487Z,54.00
2017-08-23T12:34:32.863Z,56.90
2017-08-23T12:36:59.209Z,55.70
2017-08-23T12:39:25.596Z,51.90
2017-08-23T12:41:51.961Z,44.40
2017-08-23T12:44:18.411Z,36.20
2017-08-23T12:46:44.770Z,34.80
2017-08-23T12:49:11.127Z,30.60
2017-08-23T12:51:38.500Z,26.40
2017-08-23T12:54:04.859Z,27.30
2017-08-23T12:56:31.227Z,27.40
2017-08-23T12:58:57.605Z,25.50
2017-08-23T13:01:23.956Z,24.20
2017-08-23T13:03:50.340Z,24.10
2017-08-23T13:06:16.711Z,24.80
2017-08-23T13:08:43.070Z,26.80
2017-08-23T13:11:09.440Z,29.10
2017-08-23T13:13:35.808Z,27.80
2017-08-23T13:16:02.181Z,27.90
2017-08-23T13:18:28.523Z,26.00
2017-08-23T13:20:54.993Z,25.80
2017-08-23T13:23:21.371Z,23.50
2017-08-23T13:25:47.784Z,21.80
2017-08-23T13:28:14.144Z,21.10
2017-08-23T13:30:41.548Z,21.60
2017-08-23T13:33:07.893Z,21.20
2017-08-23T13:35:34.284Z,20.00
2017-08-23T13:38:00.595Z,19.30
2017-08-23T13:40:26.973Z,19.20
2017-08-23T13:42:53.323Z,20.30
2017-08-23T13:45:19.691Z,18.90
2017-08-23T13:47:46.043Z,19.80
2017-08-23T13:50:12.451Z,17.90
2017-08-23T13:52:38.780Z,19.10
2017-08-23T13:55:05.191Z,18.90
2017-08-23T13:57:31.547Z,19.20
2017-08-23T13:59:57.907Z,18.60
2017-08-23T14:02:24.247Z,18.60
2017-08-23T14:04:50.627Z,19.10
2017-08-23T14:07:16.947Z,19.70
2017-08-23T14:09:43.353Z,19.70
2017-08-23T14:12:09.680Z,18.90
2017-08-23T14:14:36.059Z,18.90
2017-08-23T14:17:02.419Z,18.70
2017-08-23T14:19:28.795Z,19.10
2017-08-23T14:21:55.164Z,18.80
2017-08-23T14:24:21.519Z,19.20
2017-08-23T14:26:47.864Z,19.20
2017-08-23T14:29:14.251Z,19.30
2017-08-23T14:31:40.607Z,20.10
2017-08-23T14:34:06.989Z,19.60
2017-08-23T14:36:33.327Z,21.10
2017-08-23T14:38:59.707Z,20.80
2017-08-23T14:41:26.088Z,21.60
2017-08-23T14:43:52.439Z,21.70
2017-08-23T14:46:18.791Z,21.50
2017-08-23T14:48:45.143Z,19.80
2017-08-23T14:51:11.491Z,21.30
2017-08-23T14:53:37.905Z,20.90
2017-08-23T14:56:04.316Z,21.40
2017-08-23T14:58:30.682Z,21.70
2017-08-23T15:00:57.097Z,23.50
2017-08-23T15:03:23.423Z,22.30
2017-08-23T15:05:49.783Z,22.90
2017-08-23T15:08:16.155Z,23.60
2017-08-23T15:10:42.537Z,23.00
2017-08-23T15:13:08.879Z,23.10
2017-08-23T15:15:35.275Z,23.90
2017-08-23T15:18:01.639Z,25.70
2017-08-23T15:20:28.009Z,25.80
2017-08-23T15:22:54.396Z,25.30
2017-08-23T15:25:20.749Z,28.80
2017-08-23T15:27:47.102Z,30.00
2017-08-23T15:30:13.495Z,28.60
2017-08-23T15:32:39.835Z,31.80
2017-08-23T15:35:07.257Z,30.80
2017-08-23T15:37:33.646Z,32.90
2017-08-23T15:40:00.036Z,37.80
2017-08-23T15:42:26.400Z,36.30
2017-08-23T15:44:52.819Z,39.10
2017-08-23T15:47:19.151Z,42.00
2017-08-23T15:49:45.551Z,42.00
2017-08-23T15:52:11.948Z,41.00
2017-08-23T15:54:38.344Z,43.10
2017-08-23T15:57:04.715Z,41.40
2017-08-23T15:59:31.143Z,45.30
2017-08-23T16:01:57.523Z,42.00
2017-08-23T16:04:23.887Z,45.00
2017-08-23T16:06:50.264Z,47.90
2017-08-23T16:09:16.684Z,46.30
2017-08-23T16:11:43.074Z,43.90
2017-08-23T16:14:09.500Z,47.60
2017-08-23T16:16:35.867Z,48.70
2017-08-23T16:19:02.260Z,45.00
2017-08-23T16:21:30.220Z,48.70
2017-08-23T16:23:56.606Z,46.30
2017-08-23T16:26:23.026Z,48.90
2017-08-23T16:28:49.440Z,49.70
2017-08-23T16:31:15.888Z,50.80
2017-08-23T16:33:42.280Z,51.80
2017-08-23T16:36:08.679Z,52.70
2017-08-23T16:38:35.063Z,50.90
2017-08-23T16:41:01.431Z,46.60
2017-08-23T16:43:27.787Z,51.80
2017-08-23T16:45:54.187Z,51.50
2017-08-23T16:48:20.563Z,54.30
2017-08-23T16:50:47.007Z,55.70
2017-08-23T16:53:13.389Z,56.60
2017-08-23T16:55:39.757Z,56.60
2017-08-23T16:58:06.155Z,52.60
2017-08-23T17:00:32.604Z,51.10
2017-08-23T17:02:59.000Z,49.50
2017-08-23T17:05:25.416Z,53.90
2017-08-23T17:07:51.756Z,49.60
2017-08-23T17:10:18.124Z,50.30
2017-08-23T17:12:44.551Z,52.30
2017-08-23T17:15:10.967Z,55.80
2017-08-23T17:17:37.327Z,56.50
2017-08-23T17:20:03.735Z,52.30
2017-08-23T17:22:30.125Z,57.90
2017-08-23T17:24:56.528Z,57.90
2017-08-23T17:27:22.903Z,60.10
2017-08-23T17:29:50.056Z,61.40
2017-08-23T17:32:16.519Z,61.80
2017-08-23T17:34:42.928Z,62.40
2017-08-23T17:37:09.315Z,65.30
2017-08-23T17:39:36.731Z,65.90
2017-08-23T17:42:03.132Z,64.30
2017-08-23T17:44:29.539Z,66.20
2017-08-23T17:46:55.976Z,67.90
2017-08-23T17:49:22.419Z,70.10
2017-08-23T17:51:48.925Z,70.30
2017-08-23T17:54:15.322Z,70.30
2017-08-23T17:56:41.927Z,73.00
2017-08-23T17:59:08.378Z,75.00
2017-08-23T18:01:34.763Z,76.10
2017-08-23T18:04:01.163Z,77.20
2017-08-23T18:06:27.706Z,77.80
2017-08-23T18:08:54.172Z,76.10
2017-08-23T18:11:20.596Z,78.20
2017-08-23T18:13:47.116Z,80.30
2017-08-23T18:16:14.516Z,81.50
2017-08-23T18:18:42.082Z,82.30
2017-08-23T18:21:09.603Z,81.80
2017-08-23T18:23:48.449Z,83.10
2017-08-23T18:26:16.301Z,85.10
2017-08-23T18:28:43.871Z,86.50
2017-08-23T18:31:11.773Z,87.10
2017-08-23T18:33:39.613Z,87.90
2017-08-23T18:36:07.572Z,89.20
2017-08-23T18:38:35.368Z,90.00
2017-08-23T18:41:03.467Z,90.40
2017-08-23T18:43:31.353Z,90.40
2017-08-23T18:45:59.347Z,91.10
2017-08-23T18:48:27.257Z,91.40
2017-08-23T18:50:55.237Z,91.90
2017-08-23T18:53:23.079Z,92.90
2017-08-23T18:55:51.088Z,92.70
2017-08-23T18:58:18.992Z,92.40
2017-08-23T19:00:46.916Z,92.70
2017-08-23T19:03:14.788Z,93.10
2017-08-23T19:05:42.866Z,93.60
2017-08-23T19:08:10.850Z,93.60
2017-08-23T19:10:38.824Z,94.30
2017-08-23T19:13:06.709Z,94.80
2017-08-23T19:15:34.822Z,95.70
2017-08-23T19:18:02.694Z,95.80
2017-08-23T19:20:30.718Z,96.10
2017-08-23T19:22:58.632Z,96.20
2017-08-23T19:25:26.597Z,96.70
2017-08-23T19:27:54.593Z,96.50
2017-08-23T19:30:22.617Z,96.40
2017-08-23T19:32:50.499Z,96.30
2017-08-23T19:35:19.470Z,96.10
2017-08-23T19:37:47.418Z,95.70
2017-08-23T19:40:15.257Z,96.40
2017-08-23T19:42:43.270Z,96.20
2017-08-23T19:45:11.177Z,96.60
2017-08-23T19:47:40.338Z,96.60
2017-08-23T19:50:08.246Z,96.50
2017-08-23T19:52:36.279Z,96.80
2017-08-23T19:55:04.154Z,97.10
2017-08-23T19:57:32.136Z,97.50
2017-08-23T20:00:00.113Z,97.50
2017-08-23T20:02:28.257Z,97.40
2017-08-23T20:04:56.226Z,97.50
2017-08-23T20:07:24.227Z,97.50
2017-08-23T20:09:52.089Z,97.90
2017-08-23T20:12:20.042Z,98.00
2017-08-23T20:14:48.068Z,97.80
2017-08-23T20:17:16.018Z,97.80
2017-08-23T20:19:43.906Z,98.30
2017-08-23T20:22:13.078Z,98.50
2017-08-23T20:24:40.893Z,98.40
2017-08-23T20:27:08.826Z,98.70
2017-08-23T20:29:36.818Z,99.30
2017-08-23T20:32:06.725Z,99.00
2017-08-23T20:34:34.635Z,99.20
2017-08-23T20:37:02.668Z,99.10
2017-08-23T20:39:30.481Z,99.50
2017-08-23T20:41:58.353Z,99.80
2017-08-23T20:44:26.345Z,99.90
2017-08-23T20:46:54.497Z,99.90
2017-08-23T20:49:22.324Z,99.80
2017-08-23T20:51:49.925Z,99.90
2017-08-23T20:54:17.066Z,99.90
2017-08-23T20:56:43.765Z,99.90
2017-08-23T20:59:10.531Z,99.90
2017-08-23T21:01:37.023Z,99.90
2017-08-23T21:04:03.504Z,99.90
2017-08-23T21:06:29.907Z,99.90
2017-08-23T21:08:56.267Z,99.90
2017-08-23T21:11:22.707Z,99.90
2017-08-23T21:13:49.092Z,99.90
2017-08-23T21:16:15.487Z,99.90
2017-08-23T21:18:41.852Z,99.90
2017-08-23T21:21:08.300Z,99.90
2017-08-23T21:23:34.684Z,99.90
2017-08-23T21:26:01.072Z,99.90
2017-08-23T21:28:27.465Z,99.90
2017-08-23T21:30:53.843Z,99.90
2017-08-23T21:33:20.235Z,99.90
2017-08-23T21:35:46.623Z,99.90
2017-08-23T21:38:13.003Z,99.90
2017-08-23T21:40:39.391Z,99.90
2017-08-23T21:43:05.783Z,99.90
2017-08-23T21:45:32.169Z,99.90
2017-08-23T21:47:58.560Z,99.90
2017-08-23T21:50:24.989Z,99.90
2017-08-23T21:52:51.352Z,99.90
2017-08-23T21:55:17.755Z,99.90
2017-08-23T21:57:44.175Z,99.90
2017-08-23T22:00:10.576Z,99.90
2017-08-23T22:02:36.983Z,99.90
2017-08-23T22:05:03.343Z,99.90
2017-08-23T22:07:29.758Z,99.90
2017-08-23T22:09:56.127Z,99.90
2017-08-23T22:12:22.551Z,99.90
2017-08-23T22:14:48.954Z,99.90
2017-08-23T22:17:15.761Z,99.90
2017-08-23T22:19:42.255Z,99.90
2017-08-23T22:22:08.658Z,99.90
2017-08-23T22:24:34.987Z,99.90
2017-08-23T22:27:01.412Z,99.90
2017-08-23T22:29:27.743Z,99.90
2017-08-23T22:31:54.159Z,99.90
2017-08-23T22:34:20.626Z,99.90
2017-08-23T22:36:46.967Z,99.90
2017-08-23T22:39:13.371Z,99.90
2017-08-23T22:41:39.772Z,99.90
2017-08-23T22:44:06.111Z,99.90
2017-08-23T22:46:32.489Z,99.90
2017-08-23T22:48:58.851Z,99.90
2017-08-23T22:51:25.251Z,99.90
2017-08-23T22:53:51.651Z,99.90
2017-08-23T22:56:18.067Z,99.90
2017-08-23T22:58:50.954Z,99.90
2017-08-23T23:01:21.411Z,99.90
2017-08-23T23:03:47.727Z,99.90
2017-08-23T23:06:14.127Z,99.90
2017-08-23T23:08:40.532Z,99.90
2017-08-23T23:11:06.927Z,99.90
2017-08-23T23:13:33.299Z,99.90
2017-08-23T23:15:59.760Z,99.90
2017-08-23T23:18:26.135Z,99.90
2017-08-23T23:20:52.522Z,99.90
2017-08-23T23:23:18.926Z,99.90
2017-08-23T23:25:45.326Z,99.90
2017-08-23T23:28:11.707Z,99.90
2017-08-23T23:30:38.085Z,99.90
2017-08-23T23:33:04.525Z,99.90
2017-08-23T23:35:30.888Z,99.90
2017-08-23T23:37:57.307Z,99.90
2017-08-23T23:40:23.679Z,99.90
2017-08-23T23:42:50.035Z,99.90
2017-08-23T23:45:16.411Z,99.90
2017-08-23T23:47:42.819Z,99.90
2017-08-23T23:50:09.187Z,99.90
2017-08-23T23:52:35.643Z,99.90
2017-08-23T23:55:02.004Z,99.90
2017-08-23T23:57:28.388Z,99.90
2017-08-23T23:59:54.908Z,99.90
